sensor_id;sensor_type;location;lat;lon;timestamp;pressure;altitude;pressure_sealevel;temperature;humidity
28312;BME280;15572;48.810;9.148;2023-05-22T00:01:02;97680.50;;;14.84;100.00
28312;BME280;15572;48.810;9.148;2023-05-22T00:06:00;97689.13;;;14.81;100.00
28312;BME280;15572;48.810;9.148;2023-05-22T00:10:58;97685.00;;;14.90;100.00
28312;BME280;15572;48.810;9.148;2023-05-22T00:15:55;97679.44;;;14.85;100.00
28312;BME280;15572;48.810;9.148;2023-05-22T00:20:51;97677.75;;;14.72;100.00
28312;BME280;15572;48.810;9.148;2023-05-22T00:25:48;97680.00;;;14.63;100.00
28312;BME280;15572;48.810;9.148;2023-05-22T00:30:46;97671.31;;;14.55;100.00
28312;BME280;15572;48.810;9.148;2023-05-22T00:35:42;97673.06;;;14.38;100.00
28312;BME280;15572;48.810;9.148;2023-05-22T00:40:39;97673.28;;;14.36;100.00
28312;BME280;15572;48.810;9.148;2023-05-22T00:45:35;97677.28;;;14.33;100.00
28312;BME280;15572;48.810;9.148;2023-05-22T00:50:33;97677.63;;;14.25;100.00
28312;BME280;15572;48.810;9.148;2023-05-22T00:55:30;97671.22;;;14.20;100.00
28312;BME280;15572;48.810;9.148;2023-05-22T01:00:27;97677.72;;;14.19;100.00
28312;BME280;15572;48.810;9.148;2023-05-22T01:05:23;97680.88;;;14.16;100.00
28312;BME280;15572;48.810;9.148;2023-05-22T01:10:22;97674.03;;;14.13;100.00
28312;BME280;15572;48.810;9.148;2023-05-22T01:15:24;97676.28;;;14.16;100.00
28312;BME280;15572;48.810;9.148;2023-05-22T01:20:24;97683.47;;;14.11;100.00
28312;BME280;15572;48.810;9.148;2023-05-22T01:25:52;97683.66;;;13.98;100.00
28312;BME280;15572;48.810;9.148;2023-05-22T01:30:59;97689.47;;;14.01;100.00
28312;BME280;15572;48.810;9.148;2023-05-22T01:35:58;97685.56;;;13.97;100.00
28312;BME280;15572;48.810;9.148;2023-05-22T01:40:57;97690.25;;;13.90;100.00
28312;BME280;15572;48.810;9.148;2023-05-22T01:45:54;97687.84;;;13.82;100.00
28312;BME280;15572;48.810;9.148;2023-05-22T01:50:52;97689.13;;;13.79;100.00
28312;BME280;15572;48.810;9.148;2023-05-22T01:55:51;97694.91;;;13.71;100.00
28312;BME280;15572;48.810;9.148;2023-05-22T02:00:56;97694.97;;;13.65;100.00
28312;BME280;15572;48.810;9.148;2023-05-22T02:05:54;97700.34;;;13.53;100.00
28312;BME280;15572;48.810;9.148;2023-05-22T02:10:54;97703.28;;;13.52;100.00
28312;BME280;15572;48.810;9.148;2023-05-22T02:15:51;97706.00;;;13.52;100.00
28312;BME280;15572;48.810;9.148;2023-05-22T02:20:49;97704.28;;;13.39;100.00
28312;BME280;15572;48.810;9.148;2023-05-22T02:25:46;97699.06;;;13.37;100.00
28312;BME280;15572;48.810;9.148;2023-05-22T02:30:42;97696.34;;;13.37;100.00
28312;BME280;15572;48.810;9.148;2023-05-22T02:35:38;97693.19;;;13.40;100.00
28312;BME280;15572;48.810;9.148;2023-05-22T02:40:36;97691.38;;;13.34;100.00
28312;BME280;15572;48.810;9.148;2023-05-22T02:45:34;97684.09;;;13.28;100.00
28312;BME280;15572;48.810;9.148;2023-05-22T02:50:30;97692.25;;;13.28;100.00
28312;BME280;15572;48.810;9.148;2023-05-22T02:55:27;97691.22;;;13.29;100.00
28312;BME280;15572;48.810;9.148;2023-05-22T03:00:24;97687.88;;;13.27;100.00
28312;BME280;15572;48.810;9.148;2023-05-22T03:05:21;97693.53;;;13.26;100.00
28312;BME280;15572;48.810;9.148;2023-05-22T03:10:17;97699.50;;;13.16;100.00
28312;BME280;15572;48.810;9.148;2023-05-22T03:15:14;97701.16;;;13.17;100.00
28312;BME280;15572;48.810;9.148;2023-05-22T03:20:12;97711.13;;;13.23;100.00
28312;BME280;15572;48.810;9.148;2023-05-22T03:25:10;97707.75;;;13.28;100.00
28312;BME280;15572;48.810;9.148;2023-05-22T03:30:07;97706.84;;;13.34;100.00
28312;BME280;15572;48.810;9.148;2023-05-22T03:35:05;97714.78;;;13.35;100.00
28312;BME280;15572;48.810;9.148;2023-05-22T03:40:04;97718.63;;;13.46;100.00
28312;BME280;15572;48.810;9.148;2023-05-22T03:45:00;97724.22;;;13.51;100.00
28312;BME280;15572;48.810;9.148;2023-05-22T03:49:57;97723.13;;;13.52;100.00
28312;BME280;15572;48.810;9.148;2023-05-22T03:54:53;97727.00;;;13.63;100.00
28312;BME280;15572;48.810;9.148;2023-05-22T03:59:51;97731.09;;;13.72;100.00
28312;BME280;15572;48.810;9.148;2023-05-22T04:04:48;97730.19;;;13.78;100.00
28312;BME280;15572;48.810;9.148;2023-05-22T04:09:44;97735.53;;;13.84;100.00
28312;BME280;15572;48.810;9.148;2023-05-22T04:14:41;97740.72;;;14.04;100.00
28312;BME280;15572;48.810;9.148;2023-05-22T04:19:38;97740.53;;;14.17;100.00
28312;BME280;15572;48.810;9.148;2023-05-22T04:24:35;97741.22;;;14.31;100.00
28312;BME280;15572;48.810;9.148;2023-05-22T04:29:33;97737.50;;;14.25;100.00
28312;BME280;15572;48.810;9.148;2023-05-22T04:34:31;97745.22;;;14.28;100.00
28312;BME280;15572;48.810;9.148;2023-05-22T04:39:29;97745.81;;;14.30;100.00
28312;BME280;15572;48.810;9.148;2023-05-22T04:44:25;97751.25;;;14.30;100.00
28312;BME280;15572;48.810;9.148;2023-05-22T04:49:24;97742.34;;;14.42;100.00
28312;BME280;15572;48.810;9.148;2023-05-22T04:54:21;97746.03;;;14.47;100.00
28312;BME280;15572;48.810;9.148;2023-05-22T04:59:19;97756.09;;;14.58;100.00
28312;BME280;15572;48.810;9.148;2023-05-22T05:04:17;97754.88;;;14.72;100.00
28312;BME280;15572;48.810;9.148;2023-05-22T05:09:14;97762.13;;;14.90;100.00
28312;BME280;15572;48.810;9.148;2023-05-22T05:14:10;97758.56;;;15.01;100.00
28312;BME280;15572;48.810;9.148;2023-05-22T05:19:08;97760.16;;;15.21;100.00
28312;BME280;15572;48.810;9.148;2023-05-22T05:24:05;97762.06;;;15.32;100.00
28312;BME280;15572;48.810;9.148;2023-05-22T05:29:01;97756.13;;;15.46;100.00
28312;BME280;15572;48.810;9.148;2023-05-22T05:33:58;97751.84;;;15.62;100.00
28312;BME280;15572;48.810;9.148;2023-05-22T05:38:56;97747.44;;;15.84;100.00
28312;BME280;15572;48.810;9.148;2023-05-22T05:43:53;97759.47;;;16.12;100.00
28312;BME280;15572;48.810;9.148;2023-05-22T05:48:51;97756.75;;;16.40;100.00
28312;BME280;15572;48.810;9.148;2023-05-22T05:53:48;97751.72;;;16.60;100.00
28312;BME280;15572;48.810;9.148;2023-05-22T05:58:45;97752.91;;;16.81;100.00
28312;BME280;15572;48.810;9.148;2023-05-22T06:03:42;97760.19;;;16.92;100.00
28312;BME280;15572;48.810;9.148;2023-05-22T06:08:38;97765.34;;;17.05;100.00
28312;BME280;15572;48.810;9.148;2023-05-22T06:13:36;97772.63;;;17.16;100.00
28312;BME280;15572;48.810;9.148;2023-05-22T06:18:34;97774.06;;;17.36;100.00
28312;BME280;15572;48.810;9.148;2023-05-22T06:23:31;97774.00;;;17.52;100.00
28312;BME280;15572;48.810;9.148;2023-05-22T06:28:27;97771.72;;;17.61;100.00
28312;BME280;15572;48.810;9.148;2023-05-22T06:33:24;97767.53;;;17.75;100.00
28312;BME280;15572;48.810;9.148;2023-05-22T06:38:22;97767.75;;;17.90;100.00
28312;BME280;15572;48.810;9.148;2023-05-22T06:43:18;97774.47;;;17.99;100.00
28312;BME280;15572;48.810;9.148;2023-05-22T06:48:15;97775.91;;;18.07;100.00
28312;BME280;15572;48.810;9.148;2023-05-22T06:53:12;97780.97;;;18.15;100.00
28312;BME280;15572;48.810;9.148;2023-05-22T06:58:09;97776.63;;;18.19;100.00
28312;BME280;15572;48.810;9.148;2023-05-22T07:03:06;97782.75;;;18.26;100.00
28312;BME280;15572;48.810;9.148;2023-05-22T07:08:03;97784.19;;;18.34;100.00
28312;BME280;15572;48.810;9.148;2023-05-22T07:13:00;97788.47;;;18.46;100.00
28312;BME280;15572;48.810;9.148;2023-05-22T07:17:58;97784.78;;;18.58;100.00
28312;BME280;15572;48.810;9.148;2023-05-22T07:22:54;97787.63;;;18.68;100.00
28312;BME280;15572;48.810;9.148;2023-05-22T07:27:52;97774.31;;;18.81;100.00
28312;BME280;15572;48.810;9.148;2023-05-22T07:32:49;97780.53;;;18.99;100.00
28312;BME280;15572;48.810;9.148;2023-05-22T07:37:47;97785.06;;;19.15;100.00
28312;BME280;15572;48.810;9.148;2023-05-22T07:42:43;97786.38;;;19.39;100.00
28312;BME280;15572;48.810;9.148;2023-05-22T07:47:40;97781.59;;;19.56;100.00
28312;BME280;15572;48.810;9.148;2023-05-22T07:52:36;97781.72;;;19.76;96.23
28312;BME280;15572;48.810;9.148;2023-05-22T07:57:34;97784.84;;;19.95;96.93
28312;BME280;15572;48.810;9.148;2023-05-22T08:02:31;97786.34;;;20.13;93.93
28312;BME280;15572;48.810;9.148;2023-05-22T08:07:27;97780.56;;;20.19;93.37
28312;BME280;15572;48.810;9.148;2023-05-22T08:12:24;97797.47;;;20.43;94.18
28312;BME280;15572;48.810;9.148;2023-05-22T08:17:22;97789.00;;;20.50;90.97
28312;BME280;15572;48.810;9.148;2023-05-22T08:22:18;97795.03;;;20.52;91.35
28312;BME280;15572;48.810;9.148;2023-05-22T08:27:15;97784.09;;;20.67;89.53
28312;BME280;15572;48.810;9.148;2023-05-22T08:32:11;97777.50;;;20.78;90.24
28312;BME280;15572;48.810;9.148;2023-05-22T08:37:09;97779.47;;;20.93;90.87
28312;BME280;15572;48.810;9.148;2023-05-22T08:42:06;97776.22;;;21.21;89.70
28312;BME280;15572;48.810;9.148;2023-05-22T08:47:03;97776.50;;;21.35;89.18
28312;BME280;15572;48.810;9.148;2023-05-22T08:52:08;97769.31;;;21.64;86.08
28312;BME280;15572;48.810;9.148;2023-05-22T08:57:07;97778.06;;;21.92;82.69
28312;BME280;15572;48.810;9.148;2023-05-22T09:02:05;97771.97;;;22.20;81.89
28312;BME280;15572;48.810;9.148;2023-05-22T09:13:08;97764.13;;;22.52;80.61
28312;BME280;15572;48.810;9.148;2023-05-22T09:18:05;97778.56;;;22.88;79.03
28312;BME280;15572;48.810;9.148;2023-05-22T09:23:09;97775.84;;;22.78;77.17
28312;BME280;15572;48.810;9.148;2023-05-22T09:28:07;97774.25;;;22.62;78.56
28312;BME280;15572;48.810;9.148;2023-05-22T09:33:04;97776.19;;;22.61;79.52
28312;BME280;15572;48.810;9.148;2023-05-22T09:38:02;97770.72;;;22.51;79.90
28312;BME280;15572;48.810;9.148;2023-05-22T09:43:00;97768.81;;;22.47;81.03
28312;BME280;15572;48.810;9.148;2023-05-22T09:47:58;97769.88;;;22.56;81.13
28312;BME280;15572;48.810;9.148;2023-05-22T09:52:55;97768.16;;;22.70;78.68
28312;BME280;15572;48.810;9.148;2023-05-22T09:57:53;97764.31;;;22.66;80.49
28312;BME280;15572;48.810;9.148;2023-05-22T10:02:53;97773.97;;;22.74;80.46
28312;BME280;15572;48.810;9.148;2023-05-22T10:07:56;97768.59;;;22.92;79.15
28312;BME280;15572;48.810;9.148;2023-05-22T10:13:00;97767.44;;;22.98;76.18
28312;BME280;15572;48.810;9.148;2023-05-22T10:17:59;97764.13;;;23.01;74.70
28312;BME280;15572;48.810;9.148;2023-05-22T10:22:58;97770.03;;;23.24;71.86
28312;BME280;15572;48.810;9.148;2023-05-22T10:27:58;97770.47;;;23.36;71.89
28312;BME280;15572;48.810;9.148;2023-05-22T10:32:56;97768.31;;;23.33;69.47
28312;BME280;15572;48.810;9.148;2023-05-22T10:38:09;97767.47;;;23.32;70.94
28312;BME280;15572;48.810;9.148;2023-05-22T10:48:43;97750.94;;;23.90;71.72
28312;BME280;15572;48.810;9.148;2023-05-22T10:53:42;97743.19;;;24.40;70.06
28312;BME280;15572;48.810;9.148;2023-05-22T10:58:42;97732.81;;;24.69;67.23
28312;BME280;15572;48.810;9.148;2023-05-22T11:03:53;97730.63;;;25.41;66.43
28312;BME280;15572;48.810;9.148;2023-05-22T11:08:54;97731.16;;;26.03;63.98
28312;BME280;15572;48.810;9.148;2023-05-22T11:13:51;97717.91;;;26.13;58.27
28312;BME280;15572;48.810;9.148;2023-05-22T11:18:47;97727.91;;;26.01;54.60
28312;BME280;15572;48.810;9.148;2023-05-22T11:23:44;97717.72;;;26.10;53.76
28312;BME280;15572;48.810;9.148;2023-05-22T11:28:42;97714.88;;;26.42;48.14
28312;BME280;15572;48.810;9.148;2023-05-22T11:33:39;97717.72;;;26.51;50.60
28312;BME280;15572;48.810;9.148;2023-05-22T11:38:36;97706.56;;;26.78;51.96
28312;BME280;15572;48.810;9.148;2023-05-22T11:43:33;97707.34;;;27.81;48.10
28312;BME280;15572;48.810;9.148;2023-05-22T11:48:32;97693.38;;;28.03;48.35
28312;BME280;15572;48.810;9.148;2023-05-22T11:53:30;97690.66;;;28.12;50.51
28312;BME280;15572;48.810;9.148;2023-05-22T11:58:27;97684.31;;;28.20;49.57
28312;BME280;15572;48.810;9.148;2023-05-22T12:03:27;97691.84;;;28.20;49.41
28312;BME280;15572;48.810;9.148;2023-05-22T12:08:25;97680.63;;;28.42;49.87
28312;BME280;15572;48.810;9.148;2023-05-22T12:13:23;97681.75;;;28.50;48.93
28312;BME280;15572;48.810;9.148;2023-05-22T12:18:19;97669.78;;;27.92;48.45
28312;BME280;15572;48.810;9.148;2023-05-22T12:23:20;97670.94;;;28.00;49.71
28312;BME280;15572;48.810;9.148;2023-05-22T12:28:21;97664.72;;;28.42;46.48
28312;BME280;15572;48.810;9.148;2023-05-22T12:33:18;97657.03;;;28.48;46.23
28312;BME280;15572;48.810;9.148;2023-05-22T12:38:14;97668.41;;;28.77;44.66
28312;BME280;15572;48.810;9.148;2023-05-22T12:43:11;97677.25;;;28.79;41.10
28312;BME280;15572;48.810;9.148;2023-05-22T12:48:09;97677.69;;;28.56;42.76
28312;BME280;15572;48.810;9.148;2023-05-22T12:53:06;97676.09;;;28.89;43.89
28312;BME280;15572;48.810;9.148;2023-05-22T12:58:02;97679.72;;;29.33;42.59
28312;BME280;15572;48.810;9.148;2023-05-22T13:02:59;97675.75;;;29.34;41.09
28312;BME280;15572;48.810;9.148;2023-05-22T13:07:57;97662.50;;;29.05;42.41
28312;BME280;15572;48.810;9.148;2023-05-22T13:12:54;97655.09;;;29.43;41.26
28312;BME280;15572;48.810;9.148;2023-05-22T13:17:50;97652.50;;;28.95;43.18
28312;BME280;15572;48.810;9.148;2023-05-22T13:22:47;97640.22;;;29.05;42.67
28312;BME280;15572;48.810;9.148;2023-05-22T13:27:44;97657.56;;;29.27;42.00
28312;BME280;15572;48.810;9.148;2023-05-22T13:32:41;97644.16;;;28.95;42.28
28312;BME280;15572;48.810;9.148;2023-05-22T13:37:37;97643.50;;;28.81;41.07
28312;BME280;15572;48.810;9.148;2023-05-22T13:42:34;97653.97;;;28.93;41.66
28312;BME280;15572;48.810;9.148;2023-05-22T13:47:32;97668.06;;;28.96;41.21
28312;BME280;15572;48.810;9.148;2023-05-22T13:52:28;97657.56;;;28.67;41.25
28312;BME280;15572;48.810;9.148;2023-05-22T13:57:25;97648.34;;;28.58;43.32
28312;BME280;15572;48.810;9.148;2023-05-22T14:02:21;97634.59;;;28.44;43.81
28312;BME280;15572;48.810;9.148;2023-05-22T14:07:19;97638.53;;;28.52;44.63
28312;BME280;15572;48.810;9.148;2023-05-22T14:12:16;97644.44;;;28.68;43.53
28312;BME280;15572;48.810;9.148;2023-05-22T14:17:12;97638.75;;;28.81;42.03
28312;BME280;15572;48.810;9.148;2023-05-22T14:22:09;97630.22;;;28.86;41.92
28312;BME280;15572;48.810;9.148;2023-05-22T14:27:06;97635.16;;;28.90;41.84
28312;BME280;15572;48.810;9.148;2023-05-22T14:32:04;97626.94;;;29.02;40.34
28312;BME280;15572;48.810;9.148;2023-05-22T14:37:01;97615.91;;;29.22;40.40
28312;BME280;15572;48.810;9.148;2023-05-22T14:41:57;97626.25;;;29.22;40.09
28312;BME280;15572;48.810;9.148;2023-05-22T14:46:55;97627.72;;;29.19;42.31
28312;BME280;15572;48.810;9.148;2023-05-22T14:51:51;97641.34;;;29.21;41.95
28312;BME280;15572;48.810;9.148;2023-05-22T14:56:48;97646.56;;;29.22;42.59
28312;BME280;15572;48.810;9.148;2023-05-22T15:01:45;97643.16;;;29.08;42.48
28312;BME280;15572;48.810;9.148;2023-05-22T15:06:45;97659.03;;;28.91;42.12
28312;BME280;15572;48.810;9.148;2023-05-22T15:11:42;97656.75;;;28.93;42.55
28312;BME280;15572;48.810;9.148;2023-05-22T15:16:41;97646.38;;;28.59;43.04
28312;BME280;15572;48.810;9.148;2023-05-22T15:21:37;97646.44;;;28.76;41.53
28312;BME280;15572;48.810;9.148;2023-05-22T15:26:37;97648.56;;;28.87;40.74
28312;BME280;15572;48.810;9.148;2023-05-22T15:31:34;97639.25;;;29.01;39.56
28312;BME280;15572;48.810;9.148;2023-05-22T15:36:31;97622.00;;;28.64;40.70
28312;BME280;15572;48.810;9.148;2023-05-22T15:41:28;97612.03;;;28.63;40.78
28312;BME280;15572;48.810;9.148;2023-05-22T15:46:25;97614.19;;;28.01;41.41
28312;BME280;15572;48.810;9.148;2023-05-22T15:51:22;97622.19;;;27.54;42.03
28312;BME280;15572;48.810;9.148;2023-05-22T15:56:18;97631.50;;;27.50;41.61
28312;BME280;15572;48.810;9.148;2023-05-22T16:01:15;97633.63;;;27.31;42.59
28312;BME280;15572;48.810;9.148;2023-05-22T16:06:13;97636.38;;;27.22;43.40
28312;BME280;15572;48.810;9.148;2023-05-22T16:11:10;97633.06;;;27.20;43.26
28312;BME280;15572;48.810;9.148;2023-05-22T16:16:06;97636.75;;;27.07;43.68
28312;BME280;15572;48.810;9.148;2023-05-22T16:21:03;97634.38;;;26.92;44.04
28312;BME280;15572;48.810;9.148;2023-05-22T16:26:01;97627.66;;;26.70;45.15
28312;BME280;15572;48.810;9.148;2023-05-22T16:30:57;97630.09;;;26.72;44.87
28312;BME280;15572;48.810;9.148;2023-05-22T16:35:54;97614.03;;;26.47;46.02
28312;BME280;15572;48.810;9.148;2023-05-22T16:40:50;97636.88;;;26.30;46.74
28312;BME280;15572;48.810;9.148;2023-05-22T16:45:50;97662.56;;;26.08;48.18
28312;BME280;15572;48.810;9.148;2023-05-22T16:50:46;97673.47;;;25.91;47.95
28312;BME280;15572;48.810;9.148;2023-05-22T16:55:43;97680.84;;;25.68;49.43
28312;BME280;15572;48.810;9.148;2023-05-22T17:00:40;97674.38;;;25.27;51.16
28312;BME280;15572;48.810;9.148;2023-05-22T17:05:37;97676.34;;;25.07;52.03
28312;BME280;15572;48.810;9.148;2023-05-22T17:10:34;97674.66;;;24.93;52.75
28312;BME280;15572;48.810;9.148;2023-05-22T17:15:30;97686.78;;;24.78;53.21
28312;BME280;15572;48.810;9.148;2023-05-22T17:20:27;97682.72;;;24.70;53.81
28312;BME280;15572;48.810;9.148;2023-05-22T17:25:25;97676.44;;;24.65;54.43
28312;BME280;15572;48.810;9.148;2023-05-22T17:30:21;97677.13;;;24.57;56.01
28312;BME280;15572;48.810;9.148;2023-05-22T17:35:18;97680.19;;;24.55;56.73
28312;BME280;15572;48.810;9.148;2023-05-22T17:40:14;97685.25;;;24.48;57.77
28312;BME280;15572;48.810;9.148;2023-05-22T17:45:12;97692.72;;;24.29;60.50
28312;BME280;15572;48.810;9.148;2023-05-22T17:50:10;97692.78;;;24.00;62.96
28312;BME280;15572;48.810;9.148;2023-05-22T17:55:07;97691.66;;;23.54;64.32
28312;BME280;15572;48.810;9.148;2023-05-22T18:00:05;97704.38;;;23.16;64.85
28312;BME280;15572;48.810;9.148;2023-05-22T18:05:06;97708.03;;;22.67;66.52
28312;BME280;15572;48.810;9.148;2023-05-22T18:10:04;97712.06;;;22.41;67.67
28312;BME280;15572;48.810;9.148;2023-05-22T18:15:00;97711.31;;;22.25;69.55
28312;BME280;15572;48.810;9.148;2023-05-22T18:19:59;97703.75;;;21.76;72.68
28312;BME280;15572;48.810;9.148;2023-05-22T18:24:57;97710.44;;;21.45;74.33
28312;BME280;15572;48.810;9.148;2023-05-22T18:29:53;97720.63;;;21.29;76.06
28312;BME280;15572;48.810;9.148;2023-05-22T18:34:50;97718.97;;;21.18;76.66
28312;BME280;15572;48.810;9.148;2023-05-22T18:39:47;97726.38;;;21.13;76.82
28312;BME280;15572;48.810;9.148;2023-05-22T18:44:44;97720.31;;;21.11;77.28
28312;BME280;15572;48.810;9.148;2023-05-22T18:49:41;97728.31;;;21.02;78.33
28312;BME280;15572;48.810;9.148;2023-05-22T18:54:37;97733.53;;;20.98;78.74
28312;BME280;15572;48.810;9.148;2023-05-22T18:59:35;97740.66;;;20.79;80.55
28312;BME280;15572;48.810;9.148;2023-05-22T19:04:33;97738.47;;;20.81;80.45
28312;BME280;15572;48.810;9.148;2023-05-22T19:09:29;97730.50;;;20.90;80.75
28312;BME280;15572;48.810;9.148;2023-05-22T19:14:26;97727.22;;;20.93;81.06
28312;BME280;15572;48.810;9.148;2023-05-22T19:19:22;97741.22;;;20.81;81.76
28312;BME280;15572;48.810;9.148;2023-05-22T19:24:20;97752.47;;;20.80;82.24
28312;BME280;15572;48.810;9.148;2023-05-22T19:29:17;97755.50;;;20.78;83.58
28312;BME280;15572;48.810;9.148;2023-05-22T19:34:13;97766.75;;;20.62;85.23
28312;BME280;15572;48.810;9.148;2023-05-22T19:39:10;97772.75;;;20.43;87.97
28312;BME280;15572;48.810;9.148;2023-05-22T19:44:08;97786.13;;;20.30;87.82
28312;BME280;15572;48.810;9.148;2023-05-22T19:49:04;97783.06;;;20.21;88.46
28312;BME280;15572;48.810;9.148;2023-05-22T19:54:01;97783.81;;;20.06;89.93
28312;BME280;15572;48.810;9.148;2023-05-22T19:58:57;97793.97;;;20.06;90.08
28312;BME280;15572;48.810;9.148;2023-05-22T20:03:55;97787.84;;;19.94;92.07
28312;BME280;15572;48.810;9.148;2023-05-22T20:08:51;97791.13;;;19.86;92.41
28312;BME280;15572;48.810;9.148;2023-05-22T20:13:48;97789.94;;;19.76;94.93
28312;BME280;15572;48.810;9.148;2023-05-22T20:18:44;97801.41;;;19.63;95.57
28312;BME280;15572;48.810;9.148;2023-05-22T20:23:44;97800.47;;;19.48;96.45
28312;BME280;15572;48.810;9.148;2023-05-22T20:28:40;97806.28;;;19.24;99.76
28312;BME280;15572;48.810;9.148;2023-05-22T20:33:37;97811.97;;;19.18;99.35
28312;BME280;15572;48.810;9.148;2023-05-22T20:38:33;97811.03;;;19.07;100.00
28312;BME280;15572;48.810;9.148;2023-05-22T20:43:31;97817.06;;;19.04;99.12
28312;BME280;15572;48.810;9.148;2023-05-22T20:48:28;97827.34;;;18.92;100.00
28312;BME280;15572;48.810;9.148;2023-05-22T20:53:25;97833.88;;;18.86;100.00
28312;BME280;15572;48.810;9.148;2023-05-22T20:58:21;97845.38;;;18.61;100.00
28312;BME280;15572;48.810;9.148;2023-05-22T21:03:19;97845.56;;;18.55;100.00
28312;BME280;15572;48.810;9.148;2023-05-22T21:08:16;97843.28;;;18.68;100.00
28312;BME280;15572;48.810;9.148;2023-05-22T21:13:12;97835.25;;;18.62;100.00
28312;BME280;15572;48.810;9.148;2023-05-22T21:18:09;97836.66;;;18.42;100.00
28312;BME280;15572;48.810;9.148;2023-05-22T21:23:07;97836.50;;;18.32;100.00
28312;BME280;15572;48.810;9.148;2023-05-22T21:28:03;97835.97;;;18.14;100.00
28312;BME280;15572;48.810;9.148;2023-05-22T21:33:02;97842.22;;;18.09;100.00
28312;BME280;15572;48.810;9.148;2023-05-22T21:37:58;97851.13;;;17.99;100.00
28312;BME280;15572;48.810;9.148;2023-05-22T21:42:56;97856.19;;;17.91;100.00
28312;BME280;15572;48.810;9.148;2023-05-22T21:47:52;97854.13;;;17.98;100.00
28312;BME280;15572;48.810;9.148;2023-05-22T21:52:49;97846.56;;;18.05;100.00
28312;BME280;15572;48.810;9.148;2023-05-22T21:57:46;97861.41;;;18.09;100.00
28312;BME280;15572;48.810;9.148;2023-05-22T22:02:43;97863.00;;;18.05;100.00
28312;BME280;15572;48.810;9.148;2023-05-22T22:07:40;97867.25;;;18.18;100.00
28312;BME280;15572;48.810;9.148;2023-05-22T22:12:36;97864.16;;;18.31;100.00
28312;BME280;15572;48.810;9.148;2023-05-22T22:17:33;97862.69;;;18.23;100.00
28312;BME280;15572;48.810;9.148;2023-05-22T22:22:30;97863.19;;;18.20;100.00
28312;BME280;15572;48.810;9.148;2023-05-22T22:27:27;97871.16;;;18.22;100.00
28312;BME280;15572;48.810;9.148;2023-05-22T22:32:23;97872.38;;;18.31;100.00
28312;BME280;15572;48.810;9.148;2023-05-22T22:37:20;97874.72;;;18.22;100.00
28312;BME280;15572;48.810;9.148;2023-05-22T22:42:18;97872.38;;;18.31;100.00
28312;BME280;15572;48.810;9.148;2023-05-22T22:47:14;97874.41;;;18.19;100.00
28312;BME280;15572;48.810;9.148;2023-05-22T22:52:11;97872.50;;;18.19;100.00
28312;BME280;15572;48.810;9.148;2023-05-22T22:57:07;97873.50;;;18.13;100.00
28312;BME280;15572;48.810;9.148;2023-05-22T23:02:05;97877.75;;;18.04;100.00
28312;BME280;15572;48.810;9.148;2023-05-22T23:07:02;97886.72;;;17.99;100.00
28312;BME280;15572;48.810;9.148;2023-05-22T23:11:58;97885.00;;;17.93;100.00
28312;BME280;15572;48.810;9.148;2023-05-22T23:16:55;97884.66;;;17.90;100.00
28312;BME280;15572;48.810;9.148;2023-05-22T23:21:53;97879.28;;;17.95;100.00
28312;BME280;15572;48.810;9.148;2023-05-22T23:26:49;97879.94;;;17.85;100.00
28312;BME280;15572;48.810;9.148;2023-05-22T23:31:46;97886.50;;;17.67;100.00
28312;BME280;15572;48.810;9.148;2023-05-22T23:36:44;97891.63;;;17.64;100.00
28312;BME280;15572;48.810;9.148;2023-05-22T23:41:42;97900.81;;;17.58;100.00
28312;BME280;15572;48.810;9.148;2023-05-22T23:46:38;97910.94;;;17.57;100.00
28312;BME280;15572;48.810;9.148;2023-05-22T23:51:35;97912.25;;;17.55;100.00
28312;BME280;15572;48.810;9.148;2023-05-22T23:56:31;97910.84;;;17.52;100.00
